sensor_id;sensor_type;location;lat;lon;timestamp;pressure;altitude;pressure_sealevel;temperature;humidity
40502;BME280;29631;49.168;9.848;2023-05-22T00:00:17;96282.28;;;22.33;83.49
40502;BME280;29631;49.168;9.848;2023-05-22T00:02:43;96296.72;;;22.37;83.60
40502;BME280;29631;49.168;9.848;2023-05-22T00:05:13;96294.63;;;22.34;83.80
40502;BME280;29631;49.168;9.848;2023-05-22T00:07:40;96282.88;;;22.30;83.40
40502;BME280;29631;49.168;9.848;2023-05-22T00:10:07;96285.00;;;22.28;83.33
40502;BME280;29631;49.168;9.848;2023-05-22T00:12:33;96277.00;;;22.23;83.53
40502;BME280;29631;49.168;9.848;2023-05-22T00:14:59;96278.94;;;22.18;83.74
40502;BME280;29631;49.168;9.848;2023-05-22T00:17:25;96264.53;;;22.09;83.64
40502;BME280;29631;49.168;9.848;2023-05-22T00:19:53;96277.13;;;22.13;83.56
40502;BME280;29631;49.168;9.848;2023-05-22T00:22:19;96257.16;;;21.96;83.54
40502;BME280;29631;49.168;9.848;2023-05-22T00:24:45;96277.13;;;22.13;83.69
40502;BME280;29631;49.168;9.848;2023-05-22T00:27:11;96268.09;;;22.04;83.60
40502;BME280;29631;49.168;9.848;2023-05-22T00:29:37;96259.06;;;21.95;83.66
40502;BME280;29631;49.168;9.848;2023-05-22T00:32:04;96278.03;;;22.04;83.72
40502;BME280;29631;49.168;9.848;2023-05-22T00:34:30;96281.25;;;22.06;83.64
40502;BME280;29631;49.168;9.848;2023-05-22T00:36:56;96263.91;;;21.93;83.56
40502;BME280;29631;49.168;9.848;2023-05-22T00:39:21;96264.50;;;21.91;83.89
40502;BME280;29631;49.168;9.848;2023-05-22T00:41:47;96247.97;;;21.79;83.56
40502;BME280;29631;49.168;9.848;2023-05-22T00:44:13;96281.09;;;21.92;83.92
40502;BME280;29631;49.168;9.848;2023-05-22T00:46:39;96264.53;;;21.86;83.69
40502;BME280;29631;49.168;9.848;2023-05-22T00:49:05;96267.78;;;21.83;83.70
40502;BME280;29631;49.168;9.848;2023-05-22T00:51:31;96276.31;;;21.90;83.62
40502;BME280;29631;49.168;9.848;2023-05-22T00:53:56;96265.16;;;21.78;83.95
40502;BME280;29631;49.168;9.848;2023-05-22T00:56:22;96204.38;;;21.35;83.83
40502;BME280;29631;49.168;9.848;2023-05-22T00:58:49;96270.56;;;21.73;83.74
40502;BME280;29631;49.168;9.848;2023-05-22T01:01:15;96254.56;;;21.63;83.73
40502;BME280;29631;49.168;9.848;2023-05-22T01:03:42;96260.47;;;21.65;83.79
40502;BME280;29631;49.168;9.848;2023-05-22T01:06:15;96254.91;;;21.56;84.15
40502;BME280;29631;49.168;9.848;2023-05-22T01:08:43;96273.31;;;21.68;83.74
40502;BME280;29631;49.168;9.848;2023-05-22T01:11:25;96275.50;;;21.66;84.15
40502;BME280;29631;49.168;9.848;2023-05-22T01:20:05;96280.94;;;21.56;83.51
40502;BME280;29631;49.168;9.848;2023-05-22T01:29:09;96282.31;;;21.48;84.10
40502;BME280;29631;49.168;9.848;2023-05-22T01:31:39;96274.59;;;21.42;83.89
40502;BME280;29631;49.168;9.848;2023-05-22T01:34:10;96269.31;;;21.32;84.04
40502;BME280;29631;49.168;9.848;2023-05-22T01:36:37;96271.72;;;21.33;83.73
40502;BME280;29631;49.168;9.848;2023-05-22T01:39:04;96261.63;;;21.20;84.02
40502;BME280;29631;49.168;9.848;2023-05-22T01:41:34;96286.97;;;21.38;83.61
40502;BME280;29631;49.168;9.848;2023-05-22T01:44:01;96267.53;;;21.22;84.34
40502;BME280;29631;49.168;9.848;2023-05-22T01:46:27;96275.81;;;21.26;83.92
40502;BME280;29631;49.168;9.848;2023-05-22T01:48:53;96265.38;;;21.19;83.87
40502;BME280;29631;49.168;9.848;2023-05-22T01:52:01;96289.22;;;21.26;84.36
40502;BME280;29631;49.168;9.848;2023-05-22T01:54:42;96291.91;;;21.21;83.81
40502;BME280;29631;49.168;9.848;2023-05-22T01:57:31;96271.16;;;21.03;84.19
40502;BME280;29631;49.168;9.848;2023-05-22T02:00:12;96292.59;;;21.08;84.25
40502;BME280;29631;49.168;9.848;2023-05-22T02:02:44;96302.19;;;21.09;83.96
40502;BME280;29631;49.168;9.848;2023-05-22T02:05:13;96292.06;;;21.06;84.18
40502;BME280;29631;49.168;9.848;2023-05-22T02:07:42;96273.63;;;20.95;83.60
40502;BME280;29631;49.168;9.848;2023-05-22T02:10:09;96298.19;;;21.07;84.02
40502;BME280;29631;49.168;9.848;2023-05-22T02:12:35;96268.00;;;20.91;83.82
40502;BME280;29631;49.168;9.848;2023-05-22T02:15:02;96275.22;;;20.96;83.63
40502;BME280;29631;49.168;9.848;2023-05-22T02:17:29;96247.72;;;20.80;84.02
40502;BME280;29631;49.168;9.848;2023-05-22T02:19:55;96267.47;;;20.89;84.25
40502;BME280;29631;49.168;9.848;2023-05-22T02:22:20;96225.56;;;20.60;83.80
40502;BME280;29631;49.168;9.848;2023-05-22T02:24:47;96288.34;;;20.97;84.26
40502;BME280;29631;49.168;9.848;2023-05-22T02:27:14;96280.34;;;20.92;84.30
40502;BME280;29631;49.168;9.848;2023-05-22T02:29:41;96226.47;;;20.45;84.29
40502;BME280;29631;49.168;9.848;2023-05-22T02:32:07;96272.88;;;20.84;84.28
40502;BME280;29631;49.168;9.848;2023-05-22T02:34:33;96269.13;;;20.85;84.04
40502;BME280;29631;49.168;9.848;2023-05-22T02:36:59;96282.00;;;20.88;84.26
40502;BME280;29631;49.168;9.848;2023-05-22T02:39:28;96277.41;;;20.89;83.95
40502;BME280;29631;49.168;9.848;2023-05-22T02:41:54;96284.09;;;20.91;84.39
40502;BME280;29631;49.168;9.848;2023-05-22T02:44:20;96268.84;;;20.87;84.50
40502;BME280;29631;49.168;9.848;2023-05-22T02:46:46;96206.41;;;20.43;84.23
40502;BME280;29631;49.168;9.848;2023-05-22T02:49:12;96285.22;;;20.85;84.49
40502;BME280;29631;49.168;9.848;2023-05-22T02:51:38;96282.00;;;20.83;84.30
40502;BME280;29631;49.168;9.848;2023-05-22T02:54:04;96292.19;;;20.86;84.59
40502;BME280;29631;49.168;9.848;2023-05-22T02:56:30;96271.59;;;20.77;84.61
40502;BME280;29631;49.168;9.848;2023-05-22T02:58:56;96282.03;;;20.78;84.43
40502;BME280;29631;49.168;9.848;2023-05-22T03:01:22;96252.91;;;20.62;84.65
40502;BME280;29631;49.168;9.848;2023-05-22T03:03:48;96286.06;;;20.76;84.69
40502;BME280;29631;49.168;9.848;2023-05-22T03:06:14;96305.06;;;20.84;84.43
40502;BME280;29631;49.168;9.848;2023-05-22T03:08:40;96274.03;;;20.63;84.46
40502;BME280;29631;49.168;9.848;2023-05-22T03:11:08;96298.13;;;20.73;84.44
40502;BME280;29631;49.168;9.848;2023-05-22T03:13:34;96300.28;;;20.71;84.43
40502;BME280;29631;49.168;9.848;2023-05-22T03:16:01;96270.13;;;20.51;84.28
40502;BME280;29631;49.168;9.848;2023-05-22T03:18:26;96255.53;;;20.24;84.16
40502;BME280;29631;49.168;9.848;2023-05-22T03:20:52;96292.09;;;20.53;84.28
40502;BME280;29631;49.168;9.848;2023-05-22T03:23:18;96306.22;;;20.58;84.16
40502;BME280;29631;49.168;9.848;2023-05-22T03:25:46;96315.91;;;20.54;84.66
40502;BME280;29631;49.168;9.848;2023-05-22T03:28:13;96314.84;;;20.50;84.65
40502;BME280;29631;49.168;9.848;2023-05-22T03:30:39;96281.19;;;20.35;84.09
40502;BME280;29631;49.168;9.848;2023-05-22T03:33:05;96289.22;;;20.35;84.02
40502;BME280;29631;49.168;9.848;2023-05-22T03:35:30;96316.75;;;20.45;84.02
40502;BME280;29631;49.168;9.848;2023-05-22T03:37:56;96299.91;;;20.35;84.13
40502;BME280;29631;49.168;9.848;2023-05-22T03:40:22;96301.56;;;20.31;84.32
40502;BME280;29631;49.168;9.848;2023-05-22T03:42:48;96284.44;;;20.22;83.94
40502;BME280;29631;49.168;9.848;2023-05-22T03:45:14;96296.19;;;20.26;84.17
40502;BME280;29631;49.168;9.848;2023-05-22T03:47:40;96307.16;;;20.29;84.44
40502;BME280;29631;49.168;9.848;2023-05-22T03:50:06;96302.91;;;20.23;84.40
40502;BME280;29631;49.168;9.848;2023-05-22T03:52:32;96304.53;;;20.19;84.14
40502;BME280;29631;49.168;9.848;2023-05-22T03:54:58;96308.00;;;20.20;84.16
40502;BME280;29631;49.168;9.848;2023-05-22T03:57:24;96292.50;;;20.07;84.18
40502;BME280;29631;49.168;9.848;2023-05-22T03:59:50;96295.22;;;20.02;84.25
40502;BME280;29631;49.168;9.848;2023-05-22T04:02:16;96303.22;;;20.07;84.03
40502;BME280;29631;49.168;9.848;2023-05-22T04:04:41;96298.69;;;20.02;84.35
40502;BME280;29631;49.168;9.848;2023-05-22T04:07:11;96308.56;;;20.07;84.56
40502;BME280;29631;49.168;9.848;2023-05-22T04:09:38;96310.22;;;20.03;84.51
40502;BME280;29631;49.168;9.848;2023-05-22T04:12:06;96294.69;;;19.95;84.51
40502;BME280;29631;49.168;9.848;2023-05-22T04:14:32;96240.72;;;19.58;84.53
40502;BME280;29631;49.168;9.848;2023-05-22T04:16:58;96292.00;;;19.90;84.88
40502;BME280;29631;49.168;9.848;2023-05-22T04:19:24;96299.25;;;19.94;84.62
40502;BME280;29631;49.168;9.848;2023-05-22T04:21:52;96309.66;;;20.01;84.79
40502;BME280;29631;49.168;9.848;2023-05-22T04:24:19;96318.75;;;20.10;84.64
40502;BME280;29631;49.168;9.848;2023-05-22T04:26:48;96302.19;;;19.98;85.13
40502;BME280;29631;49.168;9.848;2023-05-22T04:29:14;96300.56;;;20.02;85.10
40502;BME280;29631;49.168;9.848;2023-05-22T04:31:43;96269.53;;;19.86;85.25
40502;BME280;29631;49.168;9.848;2023-05-22T04:34:14;96303.22;;;20.07;84.80
40502;BME280;29631;49.168;9.848;2023-05-22T04:36:41;96313.41;;;20.10;85.43
40502;BME280;29631;49.168;9.848;2023-05-22T04:39:09;96310.19;;;20.08;84.98
40502;BME280;29631;49.168;9.848;2023-05-22T04:41:35;96293.59;;;20.01;85.55
40502;BME280;29631;49.168;9.848;2023-05-22T04:44:00;96318.19;;;20.13;85.08
40502;BME280;29631;49.168;9.848;2023-05-22T04:46:28;96294.69;;;20.00;85.42
40502;BME280;29631;49.168;9.848;2023-05-22T04:48:54;96304.56;;;20.04;85.37
40502;BME280;29631;49.168;9.848;2023-05-22T04:51:19;96310.19;;;20.08;85.75
40502;BME280;29631;49.168;9.848;2023-05-22T04:53:47;96320.88;;;20.18;86.14
40502;BME280;29631;49.168;9.848;2023-05-22T04:56:14;96300.56;;;20.02;85.69
40502;BME280;29631;49.168;9.848;2023-05-22T04:58:39;96306.13;;;20.15;86.17
40502;BME280;29631;49.168;9.848;2023-05-22T05:01:05;96307.75;;;20.16;86.05
40502;BME280;29631;49.168;9.848;2023-05-22T05:03:31;96303.75;;;20.14;86.36
40502;BME280;29631;49.168;9.848;2023-05-22T05:05:56;96315.50;;;20.23;86.00
40502;BME280;29631;49.168;9.848;2023-05-22T05:08:23;96288.75;;;20.13;86.46
40502;BME280;29631;49.168;9.848;2023-05-22T05:10:49;96309.06;;;20.29;86.68
40502;BME280;29631;49.168;9.848;2023-05-22T05:13:15;96267.91;;;20.05;86.56
40502;BME280;29631;49.168;9.848;2023-05-22T05:15:41;96304.50;;;20.34;86.79
40502;BME280;29631;49.168;9.848;2023-05-22T05:18:06;96315.16;;;20.44;86.67
40502;BME280;29631;49.168;9.848;2023-05-22T05:20:32;96309.00;;;20.43;87.15
40502;BME280;29631;49.168;9.848;2023-05-22T05:22:58;96311.09;;;20.51;87.34
40502;BME280;29631;49.168;9.848;2023-05-22T05:25:23;96251.00;;;20.14;87.14
40502;BME280;29631;49.168;9.848;2023-05-22T05:27:49;96306.47;;;20.62;87.09
40502;BME280;29631;49.168;9.848;2023-05-22T05:30:15;96298.44;;;20.62;87.47
40502;BME280;29631;49.168;9.848;2023-05-22T05:32:41;96317.94;;;20.77;87.34
40502;BME280;29631;49.168;9.848;2023-05-22T05:35:07;96306.44;;;20.72;87.73
40502;BME280;29631;49.168;9.848;2023-05-22T05:37:33;96298.69;;;20.75;87.66
40502;BME280;29631;49.168;9.848;2023-05-22T05:39:59;96309.34;;;20.85;88.15
40502;BME280;29631;49.168;9.848;2023-05-22T05:42:25;96293.34;;;20.75;88.66
40502;BME280;29631;49.168;9.848;2023-05-22T05:44:51;96324.84;;;20.93;88.73
40502;BME280;29631;49.168;9.848;2023-05-22T05:47:16;96328.03;;;21.00;88.86
40502;BME280;29631;49.168;9.848;2023-05-22T05:49:42;96327.97;;;21.05;88.78
40502;BME280;29631;49.168;9.848;2023-05-22T05:52:08;96319.66;;;21.07;88.98
40502;BME280;29631;49.168;9.848;2023-05-22T05:54:34;96320.44;;;21.12;88.67
40502;BME280;29631;49.168;9.848;2023-05-22T05:56:59;96336.69;;;21.25;88.86
40502;BME280;29631;49.168;9.848;2023-05-22T05:59:25;96309.41;;;21.14;89.43
40502;BME280;29631;49.168;9.848;2023-05-22T06:01:51;96328.34;;;21.32;89.15
40502;BME280;29631;49.168;9.848;2023-05-22T06:04:17;96335.50;;;21.41;89.44
40502;BME280;29631;49.168;9.848;2023-05-22T06:06:42;96345.88;;;21.53;89.75
40502;BME280;29631;49.168;9.848;2023-05-22T06:09:08;96341.88;;;21.55;89.51
40502;BME280;29631;49.168;9.848;2023-05-22T06:11:35;96337.00;;;21.57;89.35
40502;BME280;29631;49.168;9.848;2023-05-22T06:14:01;96341.47;;;21.67;90.14
40502;BME280;29631;49.168;9.848;2023-05-22T06:16:28;96323.81;;;21.66;89.66
40502;BME280;29631;49.168;9.848;2023-05-22T06:18:53;96326.16;;;21.72;89.59
40502;BME280;29631;49.168;9.848;2023-05-22T06:21:22;96335.69;;;21.83;90.19
40502;BME280;29631;49.168;9.848;2023-05-22T06:23:49;96333.78;;;21.89;90.52
40502;BME280;29631;49.168;9.848;2023-05-22T06:26:15;96322.00;;;21.85;90.07
40502;BME280;29631;49.168;9.848;2023-05-22T06:28:42;96333.56;;;22.08;89.97
40502;BME280;29631;49.168;9.848;2023-05-22T06:31:08;96336.25;;;22.08;90.37
40502;BME280;29631;49.168;9.848;2023-05-22T06:33:37;96344.22;;;22.18;89.77
40502;BME280;29631;49.168;9.848;2023-05-22T06:36:05;96324.03;;;22.21;89.70
40502;BME280;29631;49.168;9.848;2023-05-22T06:38:33;96321.06;;;22.22;89.97
40502;BME280;29631;49.168;9.848;2023-05-22T06:40:59;96334.41;;;22.32;89.85
40502;BME280;29631;49.168;9.848;2023-05-22T06:43:24;96339.16;;;22.40;89.81
40502;BME280;29631;49.168;9.848;2023-05-22T06:45:50;96343.91;;;22.48;90.08
40502;BME280;29631;49.168;9.848;2023-05-22T06:48:16;96336.94;;;22.47;90.21
40502;BME280;29631;49.168;9.848;2023-05-22T06:50:42;96341.69;;;22.55;90.16
40502;BME280;29631;49.168;9.848;2023-05-22T06:53:07;96330.41;;;22.53;89.78
40502;BME280;29631;49.168;9.848;2023-05-22T06:55:33;96349.63;;;22.65;89.74
40502;BME280;29631;49.168;9.848;2023-05-22T06:57:59;96348.47;;;22.71;89.92
40502;BME280;29631;49.168;9.848;2023-05-22T07:00:25;96296.69;;;22.42;89.77
40502;BME280;29631;49.168;9.848;2023-05-22T07:02:51;96344.63;;;22.77;89.67
40502;BME280;29631;49.168;9.848;2023-05-22T07:05:16;96341.88;;;22.82;89.56
40502;BME280;29631;49.168;9.848;2023-05-22T07:07:43;96337.59;;;22.81;89.55
40502;BME280;29631;49.168;9.848;2023-05-22T07:10:09;96343.66;;;22.91;89.41
40502;BME280;29631;49.168;9.848;2023-05-22T07:12:35;96348.09;;;23.01;89.42
40502;BME280;29631;49.168;9.848;2023-05-22T07:15:01;96349.56;;;23.12;89.69
40502;BME280;29631;49.168;9.848;2023-05-22T07:17:27;96363.38;;;23.24;89.85
40502;BME280;29631;49.168;9.848;2023-05-22T07:19:53;96336.63;;;23.14;89.75
40502;BME280;29631;49.168;9.848;2023-05-22T07:22:19;96340.63;;;23.16;89.30
40502;BME280;29631;49.168;9.848;2023-05-22T07:24:45;96359.81;;;23.28;89.59
40502;BME280;29631;49.168;9.848;2023-05-22T07:27:12;96346.94;;;23.25;88.88
40502;BME280;29631;49.168;9.848;2023-05-22T07:29:38;96366.88;;;23.42;88.59
40502;BME280;29631;49.168;9.848;2023-05-22T07:32:04;96343.06;;;23.31;88.22
40502;BME280;29631;49.168;9.848;2023-05-22T07:34:30;96356.31;;;23.46;88.06
40502;BME280;29631;49.168;9.848;2023-05-22T07:37:07;96347.38;;;23.50;88.07
40502;BME280;29631;49.168;9.848;2023-05-22T07:39:33;96366.56;;;23.62;87.90
40502;BME280;29631;49.168;9.848;2023-05-22T07:41:59;96340.19;;;23.59;87.72
40502;BME280;29631;49.168;9.848;2023-05-22T07:44:25;96337.44;;;23.64;88.08
40502;BME280;29631;49.168;9.848;2023-05-22T07:46:51;96345.09;;;23.76;87.84
40502;BME280;29631;49.168;9.848;2023-05-22T07:49:18;96338.25;;;23.83;87.92
40502;BME280;29631;49.168;9.848;2023-05-22T07:51:46;96345.03;;;23.94;87.93
40502;BME280;29631;49.168;9.848;2023-05-22T07:54:12;96351.38;;;24.03;87.59
40502;BME280;29631;49.168;9.848;2023-05-22T07:56:40;96350.66;;;24.11;87.55
40502;BME280;29631;49.168;9.848;2023-05-22T07:59:07;96342.56;;;24.11;87.87
40502;BME280;29631;49.168;9.848;2023-05-22T08:01:33;96338.41;;;24.18;88.46
40502;BME280;29631;49.168;9.848;2023-05-22T08:04:02;96359.88;;;24.37;87.59
40502;BME280;29631;49.168;9.848;2023-05-22T08:06:27;96367.81;;;24.47;88.12
40502;BME280;29631;49.168;9.848;2023-05-22T08:08:54;96358.91;;;24.46;87.72
40502;BME280;29631;49.168;9.848;2023-05-22T08:11:20;96353.03;;;24.58;87.34
40502;BME280;29631;49.168;9.848;2023-05-22T08:13:46;96348.66;;;24.62;87.37
40502;BME280;29631;49.168;9.848;2023-05-22T08:16:12;96353.84;;;24.72;87.63
40502;BME280;29631;49.168;9.848;2023-05-22T08:18:38;96347.34;;;24.73;87.46
40502;BME280;29631;49.168;9.848;2023-05-22T08:21:04;96351.63;;;24.87;87.63
40502;BME280;29631;49.168;9.848;2023-05-22T08:23:30;96343.59;;;24.95;87.23
40502;BME280;29631;49.168;9.848;2023-05-22T08:25:57;96345.59;;;25.03;86.89
40502;BME280;29631;49.168;9.848;2023-05-22T08:28:23;96357.59;;;25.11;86.95
40502;BME280;29631;49.168;9.848;2023-05-22T08:30:49;96355.00;;;25.19;86.86
40502;BME280;29631;49.168;9.848;2023-05-22T08:33:15;96360.78;;;25.26;87.29
40502;BME280;29631;49.168;9.848;2023-05-22T08:35:41;96353.53;;;25.35;86.92
40502;BME280;29631;49.168;9.848;2023-05-22T08:38:06;96350.72;;;25.40;86.34
40502;BME280;29631;49.168;9.848;2023-05-22T08:40:37;96350.00;;;25.48;86.30
40502;BME280;29631;49.168;9.848;2023-05-22T08:43:04;96340.31;;;25.47;86.17
40502;BME280;29631;49.168;9.848;2023-05-22T08:45:31;96349.16;;;25.61;86.27
40502;BME280;29631;49.168;9.848;2023-05-22T08:48:04;96350.81;;;25.70;86.52
40502;BME280;29631;49.168;9.848;2023-05-22T08:50:30;96351.41;;;25.81;86.98
40502;BME280;29631;49.168;9.848;2023-05-22T08:52:59;96356.56;;;25.91;86.54
40502;BME280;29631;49.168;9.848;2023-05-22T08:55:27;96303.59;;;25.68;85.98
40502;BME280;29631;49.168;9.848;2023-05-22T08:57:55;96338.75;;;25.90;86.19
40502;BME280;29631;49.168;9.848;2023-05-22T09:00:22;96339.47;;;26.04;86.02
40502;BME280;29631;49.168;9.848;2023-05-22T09:02:48;96341.88;;;26.05;85.95
40502;BME280;29631;49.168;9.848;2023-05-22T09:05:15;96302.34;;;25.87;85.24
40502;BME280;29631;49.168;9.848;2023-05-22T09:07:44;96341.75;;;26.19;85.39
40502;BME280;29631;49.168;9.848;2023-05-22T09:10:10;96350.09;;;26.31;85.55
40502;BME280;29631;49.168;9.848;2023-05-22T09:12:36;96330.69;;;26.29;85.74
40502;BME280;29631;49.168;9.848;2023-05-22T09:15:09;96343.81;;;26.43;85.97
40502;BME280;29631;49.168;9.848;2023-05-22T09:17:39;96336.56;;;26.52;86.42
40502;BME280;29631;49.168;9.848;2023-05-22T09:20:06;96339.44;;;26.64;86.25
40502;BME280;29631;49.168;9.848;2023-05-22T09:22:36;96329.13;;;26.66;85.71
40502;BME280;29631;49.168;9.848;2023-05-22T09:25:03;96340.31;;;26.82;85.57
40502;BME280;29631;49.168;9.848;2023-05-22T09:27:29;96321.97;;;26.70;84.77
40502;BME280;29631;49.168;9.848;2023-05-22T09:29:56;96325.84;;;26.86;84.75
40502;BME280;29631;49.168;9.848;2023-05-22T09:32:22;96277.53;;;26.63;84.19
40502;BME280;29631;49.168;9.848;2023-05-22T09:34:49;96324.94;;;26.99;84.15
40502;BME280;29631;49.168;9.848;2023-05-22T09:37:16;96321.28;;;27.04;83.98
40502;BME280;29631;49.168;9.848;2023-05-22T09:39:44;96334.03;;;27.20;83.61
40502;BME280;29631;49.168;9.848;2023-05-22T09:42:11;96335.50;;;27.26;83.70
40502;BME280;29631;49.168;9.848;2023-05-22T09:44:39;96341.69;;;27.35;83.52
40502;BME280;29631;49.168;9.848;2023-05-22T09:47:07;96320.69;;;27.32;83.73
40502;BME280;29631;49.168;9.848;2023-05-22T09:49:42;96333.59;;;27.52;83.11
40502;BME280;29631;49.168;9.848;2023-05-22T09:52:08;96322.25;;;27.50;83.37
40502;BME280;29631;49.168;9.848;2023-05-22T09:54:49;96342.69;;;27.64;82.69
40502;BME280;29631;49.168;9.848;2023-05-22T09:57:20;96334.53;;;27.73;83.05
40502;BME280;29631;49.168;9.848;2023-05-22T09:59:53;96340.28;;;27.80;83.45
40502;BME280;29631;49.168;9.848;2023-05-22T10:02:24;96328.97;;;27.86;83.51
40502;BME280;29631;49.168;9.848;2023-05-22T10:04:50;96317.63;;;27.92;82.91
40502;BME280;29631;49.168;9.848;2023-05-22T10:07:21;96326.53;;;28.01;82.30
40502;BME280;29631;49.168;9.848;2023-05-22T10:09:55;96323.16;;;28.04;81.82
40502;BME280;29631;49.168;9.848;2023-05-22T10:12:24;96334.03;;;28.13;82.60
40502;BME280;29631;49.168;9.848;2023-05-22T10:14:53;96331.91;;;28.18;82.92
40502;BME280;29631;49.168;9.848;2023-05-22T10:17:19;96308.31;;;28.10;82.54
40502;BME280;29631;49.168;9.848;2023-05-22T10:19:46;96323.47;;;28.28;82.74
40502;BME280;29631;49.168;9.848;2023-05-22T10:22:13;96326.94;;;28.37;82.19
40502;BME280;29631;49.168;9.848;2023-05-22T10:24:49;96328.34;;;28.43;82.36
40502;BME280;29631;49.168;9.848;2023-05-22T10:27:15;96327.34;;;28.56;82.33
40502;BME280;29631;49.168;9.848;2023-05-22T10:30:23;96319.66;;;28.58;81.12
40502;BME280;29631;49.168;9.848;2023-05-22T10:35:39;96318.78;;;28.74;81.37
40502;BME280;29631;49.168;9.848;2023-05-22T10:38:52;96326.28;;;28.86;81.53
40502;BME280;29631;49.168;9.848;2023-05-22T10:41:22;96322.69;;;28.94;81.39
40502;BME280;29631;49.168;9.848;2023-05-22T10:43:49;96319.00;;;28.98;80.90
40502;BME280;29631;49.168;9.848;2023-05-22T10:46:16;96318.00;;;29.03;80.63
40502;BME280;29631;49.168;9.848;2023-05-22T10:48:47;96325.97;;;29.08;80.42
40502;BME280;29631;49.168;9.848;2023-05-22T10:51:22;96320.09;;;29.06;80.86
40502;BME280;29631;49.168;9.848;2023-05-22T10:54:00;96318.75;;;29.12;79.01
40502;BME280;29631;49.168;9.848;2023-05-22T10:56:34;96324.00;;;29.17;79.60
40502;BME280;29631;49.168;9.848;2023-05-22T10:59:03;96293.38;;;29.08;79.58
40502;BME280;29631;49.168;9.848;2023-05-22T11:01:33;96310.00;;;29.27;79.63
40502;BME280;29631;49.168;9.848;2023-05-22T11:07:03;96314.28;;;29.36;79.95
40502;BME280;29631;49.168;9.848;2023-05-22T11:09:30;96314.94;;;29.53;80.43
40502;BME280;29631;49.168;9.848;2023-05-22T11:12:26;96301.94;;;29.59;80.32
40502;BME280;29631;49.168;9.848;2023-05-22T11:15:07;96300.28;;;29.66;80.21
40502;BME280;29631;49.168;9.848;2023-05-22T11:17:41;96304.50;;;29.76;79.10
40502;BME280;29631;49.168;9.848;2023-05-22T11:20:19;96302.84;;;29.83;78.75
40502;BME280;29631;49.168;9.848;2023-05-22T11:23:04;96302.50;;;29.85;77.97
40502;BME280;29631;49.168;9.848;2023-05-22T11:25:32;96304.22;;;29.89;78.49
40502;BME280;29631;49.168;9.848;2023-05-22T11:28:01;96289.97;;;29.92;78.30
40502;BME280;29631;49.168;9.848;2023-05-22T11:30:28;96307.78;;;30.02;78.95
40502;BME280;29631;49.168;9.848;2023-05-22T11:32:58;96297.03;;;30.05;79.03
40502;BME280;29631;49.168;9.848;2023-05-22T11:35:24;96297.06;;;30.17;78.08
40502;BME280;29631;49.168;9.848;2023-05-22T11:37:52;96296.88;;;30.22;78.71
40502;BME280;29631;49.168;9.848;2023-05-22T11:40:23;96286.41;;;30.24;78.77
40502;BME280;29631;49.168;9.848;2023-05-22T11:42:50;96282.69;;;30.28;78.31
40502;BME280;29631;49.168;9.848;2023-05-22T11:45:16;96293.47;;;30.37;78.33
40502;BME280;29631;49.168;9.848;2023-05-22T11:47:43;96294.19;;;30.46;77.95
40502;BME280;29631;49.168;9.848;2023-05-22T11:50:10;96275.34;;;30.41;78.00
40502;BME280;29631;49.168;9.848;2023-05-22T11:52:40;96279.09;;;30.48;77.57
40502;BME280;29631;49.168;9.848;2023-05-22T11:55:07;96266.47;;;30.44;77.61
40502;BME280;29631;49.168;9.848;2023-05-22T11:57:34;96279.34;;;30.55;77.59
40502;BME280;29631;49.168;9.848;2023-05-22T12:00:01;96263.78;;;30.56;77.79
40502;BME280;29631;49.168;9.848;2023-05-22T12:02:29;96265.13;;;30.62;77.69
40502;BME280;29631;49.168;9.848;2023-05-22T12:04:56;96263.00;;;30.67;78.02
40502;BME280;29631;49.168;9.848;2023-05-22T12:07:23;96268.78;;;30.78;77.43
40502;BME280;29631;49.168;9.848;2023-05-22T12:09:50;96263.56;;;30.85;78.10
40502;BME280;29631;49.168;9.848;2023-05-22T12:12:16;96270.13;;;30.95;78.03
40502;BME280;29631;49.168;9.848;2023-05-22T12:14:45;96254.72;;;30.99;78.06
40502;BME280;29631;49.168;9.848;2023-05-22T12:17:12;96258.78;;;31.05;78.07
40502;BME280;29631;49.168;9.848;2023-05-22T12:19:43;96255.09;;;31.13;77.68
40502;BME280;29631;49.168;9.848;2023-05-22T12:22:10;96268.72;;;31.25;77.50
40502;BME280;29631;49.168;9.848;2023-05-22T12:24:40;96261.91;;;31.31;77.47
40502;BME280;29631;49.168;9.848;2023-05-22T12:27:10;96268.44;;;31.42;77.50
40502;BME280;29631;49.168;9.848;2023-05-22T12:29:37;96262.19;;;31.42;76.62
40502;BME280;29631;49.168;9.848;2023-05-22T12:32:06;96257.53;;;31.42;76.34
40502;BME280;29631;49.168;9.848;2023-05-22T12:34:34;96253.91;;;31.38;76.61
40502;BME280;29631;49.168;9.848;2023-05-22T12:37:00;96248.69;;;31.33;76.55
40502;BME280;29631;49.168;9.848;2023-05-22T12:39:27;96260.63;;;31.41;76.83
40502;BME280;29631;49.168;9.848;2023-05-22T12:41:54;96244.63;;;31.27;76.42
40502;BME280;29631;49.168;9.848;2023-05-22T12:44:20;96254.50;;;31.32;77.06
40502;BME280;29631;49.168;9.848;2023-05-22T12:46:46;96260.31;;;31.30;76.66
40502;BME280;29631;49.168;9.848;2023-05-22T12:49:11;96261.09;;;31.31;76.31
40502;BME280;29631;49.168;9.848;2023-05-22T12:51:37;96260.19;;;31.27;75.96
40502;BME280;29631;49.168;9.848;2023-05-22T12:54:03;96252.69;;;31.24;76.28
40502;BME280;29631;49.168;9.848;2023-05-22T12:56:30;96256.25;;;31.24;76.28
40502;BME280;29631;49.168;9.848;2023-05-22T12:58:57;96255.53;;;31.27;75.52
40502;BME280;29631;49.168;9.848;2023-05-22T13:01:23;96249.19;;;31.23;75.50
40502;BME280;29631;49.168;9.848;2023-05-22T13:03:50;96229.69;;;31.09;75.63
40502;BME280;29631;49.168;9.848;2023-05-22T13:06:17;96254.66;;;31.23;75.65
40502;BME280;29631;49.168;9.848;2023-05-22T13:08:42;96243.63;;;31.20;76.55
40502;BME280;29631;49.168;9.848;2023-05-22T13:11:11;96257.03;;;31.25;76.00
40502;BME280;29631;49.168;9.848;2023-05-22T13:13:37;96250.06;;;31.27;75.80
40502;BME280;29631;49.168;9.848;2023-05-22T13:16:03;96240.31;;;31.26;75.74
40502;BME280;29631;49.168;9.848;2023-05-22T13:18:29;96246.31;;;31.32;75.79
40502;BME280;29631;49.168;9.848;2023-05-22T13:20:55;96224.41;;;31.28;75.72